Time,TemperatureF,DewpointF,PressureIn,WindDirection,WindDirectionDegrees,WindSpeedMPH,WindSpeedGustMPH,Humidity,HourlyPrecipIn,Conditions,Clouds,dailyrainin,SoftwareType,DateUTC
2013-08-24 00:01:00,74.0,73.4,29.94,South,187,0.0,0.0,98,0.00,,---,0.01,VWS V14.01,2013-08-24 05:01:00,
2013-08-24 00:06:00,73.9,73.3,29.94,South,187,0.0,0.0,98,0.00,,---,0.00,VWS V14.01,2013-08-24 05:06:00,
2013-08-24 00:11:00,73.7,73.1,29.94,South,187,0.0,0.0,98,0.00,,---,0.00,VWS V14.01,2013-08-24 05:11:00,
2013-08-24 00:16:00,73.6,73.0,29.94,South,188,0.0,0.0,98,0.00,,---,0.00,VWS V14.01,2013-08-24 05:16:00,
2013-08-24 00:21:00,73.5,72.9,29.94,South,187,0.0,0.0,98,0.00,,---,0.00,VWS V14.01,2013-08-24 05:21:00,
2013-08-24 00:26:00,73.3,72.7,29.94,South,188,0.0,0.0,98,0.00,,---,0.00,VWS V14.01,2013-08-24 05:26:00,
2013-08-24 00:31:00,73.2,72.6,29.93,South,187,0.0,0.0,98,0.00,,---,0.00,VWS V14.01,2013-08-24 05:31:00,
2013-08-24 00:36:00,73.2,72.6,29.93,South,187,0.0,0.0,98,0.00,,---,0.00,VWS V14.01,2013-08-24 05:36:00,
2013-08-24 00:41:00,73.1,72.5,29.93,South,187,0.0,0.0,98,0.00,,---,0.00,VWS V14.01,2013-08-24 05:41:00,
2013-08-24 00:46:00,72.9,72.3,29.93,South,187,0.0,0.0,98,0.00,,---,0.00,VWS V14.01,2013-08-24 05:46:00,
2013-08-24 00:51:00,72.9,72.6,29.93,South,188,0.0,0.0,99,0.00,,---,0.00,VWS V14.01,2013-08-24 05:51:00,
2013-08-24 00:56:00,72.9,72.6,29.92,South,187,0.0,0.0,99,0.00,,---,0.00,VWS V14.01,2013-08-24 05:56:00,
2013-08-24 01:01:00,73.0,72.7,29.92,South,188,0.0,0.0,99,0.00,,---,0.00,VWS V14.01,2013-08-24 06:01:00,
2013-08-24 01:06:00,73.0,72.7,29.92,South,187,0.0,0.0,99,0.00,,---,0.00,VWS V14.01,2013-08-24 06:06:00,
2013-08-24 01:11:00,72.9,72.6,29.92,South,187,0.0,0.0,99,0.00,,---,0.00,VWS V14.01,2013-08-24 06:11:00,
2013-08-24 01:16:00,72.9,72.6,29.92,South,187,0.0,0.0,99,0.00,,---,0.00,VWS V14.01,2013-08-24 06:16:00,
2013-08-24 01:21:00,72.9,72.6,29.92,South,187,0.0,0.0,99,0.00,,---,0.00,VWS V14.01,2013-08-24 06:21:00,
2013-08-24 01:26:00,73.1,72.8,29.92,South,187,0.0,0.0,99,0.00,,---,0.00,VWS V14.01,2013-08-24 06:26:00,
2013-08-24 01:31:00,73.1,72.8,29.92,South,187,0.0,0.0,99,0.00,,---,0.00,VWS V14.01,2013-08-24 06:31:00,
2013-08-24 01:36:00,73.2,72.9,29.92,South,187,0.0,0.0,99,0.00,,---,0.00,VWS V14.01,2013-08-24 06:36:00,
2013-08-24 01:40:00,73.3,73.0,29.91,South,187,0.0,0.0,99,0.00,,---,0.00,VWS V14.01,2013-08-24 06:40:00,
2013-08-24 01:45:00,73.4,73.1,29.91,South,187,0.0,0.0,99,0.00,,---,0.00,VWS V14.01,2013-08-24 06:45:00,
2013-08-24 01:50:00,73.3,73.0,29.91,South,187,0.0,0.0,99,0.00,,---,0.00,VWS V14.01,2013-08-24 06:50:00,
2013-08-24 01:55:00,73.3,73.0,29.91,South,187,0.0,0.0,99,0.00,,---,0.00,VWS V14.01,2013-08-24 06:55:00,
2013-08-24 02:00:00,73.4,73.1,29.91,South,187,0.0,0.0,99,0.00,,---,0.00,VWS V14.01,2013-08-24 07:00:00,
2013-08-24 02:05:00,73.3,73.0,29.91,South,187,0.0,0.0,99,0.00,,---,0.00,VWS V14.01,2013-08-24 07:05:00,
2013-08-24 02:10:00,73.3,73.0,29.91,South,187,0.0,0.0,99,0.00,,---,0.00,VWS V14.01,2013-08-24 07:10:00,
2013-08-24 02:15:00,73.3,73.0,29.91,South,187,0.0,0.0,99,0.00,,---,0.00,VWS V14.01,2013-08-24 07:15:00,
2013-08-24 02:20:00,73.3,73.0,29.91,South,187,0.0,0.0,99,0.00,,---,0.00,VWS V14.01,2013-08-24 07:20:00,
2013-08-24 02:25:00,73.2,72.9,29.91,South,187,0.0,0.0,99,0.00,,---,0.00,VWS V14.01,2013-08-24 07:25:00,
2013-08-24 02:30:00,73.2,72.9,29.91,South,187,0.0,0.0,99,0.00,,---,0.00,VWS V14.01,2013-08-24 07:30:00,
2013-08-24 02:35:00,73.2,72.9,29.91,South,187,0.0,0.0,99,0.00,,---,0.00,VWS V14.01,2013-08-24 07:35:00,
2013-08-24 02:40:00,73.2,72.9,29.91,South,187,0.0,0.0,99,0.00,,---,0.00,VWS V14.01,2013-08-24 07:40:00,
2013-08-24 02:45:00,73.2,72.9,29.91,South,187,0.0,0.0,99,0.00,,---,0.00,VWS V14.01,2013-08-24 07:45:00,
2013-08-24 02:50:00,73.1,72.8,29.91,South,187,0.0,0.0,99,0.00,,---,0.00,VWS V14.01,2013-08-24 07:50:00,
2013-08-24 02:55:00,73.1,72.8,29.92,South,187,0.0,0.0,99,0.00,,---,0.00,VWS V14.01,2013-08-24 07:55:00,
2013-08-24 03:00:00,73.0,72.7,29.91,South,187,0.0,0.0,99,0.00,,---,0.00,VWS V14.01,2013-08-24 08:00:00,
2013-08-24 03:05:00,72.9,72.6,29.91,South,187,0.0,0.0,99,0.00,,---,0.00,VWS V14.01,2013-08-24 08:05:00,
2013-08-24 03:10:00,72.9,72.6,29.91,South,187,0.0,0.0,99,0.00,,---,0.00,VWS V14.01,2013-08-24 08:10:00,
2013-08-24 03:15:00,72.9,72.6,29.91,South,187,0.0,0.0,99,0.00,,---,0.00,VWS V14.01,2013-08-24 08:15:00,
2013-08-24 03:20:00,73.0,72.7,29.91,South,187,0.0,0.0,99,0.00,,---,0.00,VWS V14.01,2013-08-24 08:20:00,
2013-08-24 03:25:00,72.9,72.6,29.91,South,187,0.0,0.0,99,0.00,,---,0.00,VWS V14.01,2013-08-24 08:25:00,
2013-08-24 03:30:00,72.8,72.5,29.90,South,187,0.0,0.0,99,0.00,,---,0.00,VWS V14.01,2013-08-24 08:30:00,
2013-08-24 03:35:00,72.7,72.4,29.90,South,188,0.0,0.0,99,0.00,,---,0.00,VWS V14.01,2013-08-24 08:35:00,
2013-08-24 03:40:00,72.8,72.5,29.91,South,187,0.0,0.0,99,0.00,,---,0.00,VWS V14.01,2013-08-24 08:40:00,
2013-08-24 03:45:00,72.8,72.5,29.91,South,187,0.0,0.0,99,0.00,,---,0.00,VWS V14.01,2013-08-24 08:45:00,
2013-08-24 03:50:00,72.7,72.4,29.90,South,187,0.0,0.0,99,0.00,,---,0.00,VWS V14.01,2013-08-24 08:50:00,
2013-08-24 03:55:00,72.6,72.3,29.91,South,187,0.0,0.0,99,0.00,,---,0.00,VWS V14.01,2013-08-24 08:55:00,
2013-08-24 04:00:00,72.6,72.3,29.91,South,188,0.0,0.0,99,0.00,,---,0.00,VWS V14.01,2013-08-24 09:00:00,
2013-08-24 04:05:00,72.7,72.4,29.92,South,188,0.0,0.0,99,0.00,,---,0.00,VWS V14.01,2013-08-24 09:05:00,
2013-08-24 04:10:00,72.8,72.5,29.92,South,187,0.0,0.0,99,0.00,,---,0.00,VWS V14.01,2013-08-24 09:10:00,
2013-08-24 04:15:00,72.9,72.6,29.92,South,188,0.0,0.0,99,0.00,,---,0.00,VWS V14.01,2013-08-24 09:15:00,
2013-08-24 04:20:00,73.0,72.7,29.92,South,187,0.0,0.0,99,0.00,,---,0.00,VWS V14.01,2013-08-24 09:20:00,
2013-08-24 04:25:00,73.1,72.8,29.92,South,187,0.0,0.0,99,0.00,,---,0.00,VWS V14.01,2013-08-24 09:25:00,
2013-08-24 04:30:00,73.1,72.8,29.92,South,187,0.0,0.0,99,0.00,,---,0.00,VWS V14.01,2013-08-24 09:30:00,
2013-08-24 04:35:00,73.1,72.8,29.92,South,187,0.0,0.0,99,0.00,,---,0.00,VWS V14.01,2013-08-24 09:35:00,
2013-08-24 04:40:00,73.1,72.8,29.93,South,187,0.0,0.0,99,0.00,,---,0.00,VWS V14.01,2013-08-24 09:40:00,
2013-08-24 04:45:00,73.1,72.8,29.93,South,187,0.0,0.0,99,0.00,,---,0.00,VWS V14.01,2013-08-24 09:45:00,
2013-08-24 04:50:00,73.3,73.0,29.93,South,187,0.0,0.0,99,0.00,,---,0.00,VWS V14.01,2013-08-24 09:50:00,
2013-08-24 04:55:00,73.4,73.1,29.92,South,187,0.0,0.0,99,0.00,,---,0.00,VWS V14.01,2013-08-24 09:55:00,
2013-08-24 05:00:00,73.5,73.2,29.92,South,187,0.0,0.0,99,0.00,,---,0.00,VWS V14.01,2013-08-24 10:00:00,
2013-08-24 05:05:00,73.4,73.1,29.92,South,187,0.0,0.0,99,0.00,,---,0.00,VWS V14.01,2013-08-24 10:05:00,
2013-08-24 05:10:00,73.5,73.2,29.93,South,187,0.0,0.0,99,0.00,,---,0.00,VWS V14.01,2013-08-24 10:10:00,
2013-08-24 05:15:00,73.5,73.2,29.93,South,187,0.0,0.0,99,0.00,,---,0.00,VWS V14.01,2013-08-24 10:15:00,
2013-08-24 05:20:00,73.5,73.2,29.94,South,187,0.0,0.0,99,0.00,,---,0.00,VWS V14.01,2013-08-24 10:20:00,
2013-08-24 05:25:00,73.4,73.1,29.94,South,187,0.0,0.0,99,0.00,,---,0.00,VWS V14.01,2013-08-24 10:25:00,
2013-08-24 05:30:00,73.3,73.0,29.94,South,187,0.0,0.0,99,0.00,,---,0.00,VWS V14.01,2013-08-24 10:30:00,
2013-08-24 05:35:00,73.2,72.9,29.94,South,188,0.0,0.0,99,0.00,,---,0.00,VWS V14.01,2013-08-24 10:35:00,
2013-08-24 05:40:00,73.1,72.8,29.94,South,187,0.0,0.0,99,0.00,,---,0.00,VWS V14.01,2013-08-24 10:40:00,
2013-08-24 05:45:00,73.0,72.7,29.94,South,188,0.0,0.0,99,0.00,,---,0.00,VWS V14.01,2013-08-24 10:45:00,
2013-08-24 05:50:00,72.9,72.6,29.94,South,187,0.0,0.0,99,0.00,,---,0.00,VWS V14.01,2013-08-24 10:50:00,
2013-08-24 05:55:00,72.9,72.6,29.94,South,187,0.0,0.0,99,0.00,,---,0.00,VWS V14.01,2013-08-24 10:55:00,
2013-08-24 06:00:00,72.9,72.6,29.94,South,187,0.0,0.0,99,0.00,,---,0.00,VWS V14.01,2013-08-24 11:00:00,
2013-08-24 06:05:00,72.8,72.5,29.94,South,187,0.0,0.0,99,0.00,,---,0.00,VWS V14.01,2013-08-24 11:05:00,
2013-08-24 06:10:00,72.8,72.5,29.94,South,187,0.0,0.0,99,0.00,,---,0.00,VWS V14.01,2013-08-24 11:10:00,
2013-08-24 06:15:00,72.8,72.5,29.94,South,187,0.0,0.0,99,0.00,,---,0.00,VWS V14.01,2013-08-24 11:15:00,
2013-08-24 06:20:00,72.8,72.5,29.95,South,187,0.0,0.0,99,0.00,,---,0.00,VWS V14.01,2013-08-24 11:20:00,
2013-08-24 06:25:00,72.7,72.4,29.95,South,187,0.0,0.0,99,0.00,,---,0.00,VWS V14.01,2013-08-24 11:25:00,
2013-08-24 06:30:00,72.6,72.3,29.95,South,187,0.0,0.0,99,0.00,,---,0.00,VWS V14.01,2013-08-24 11:30:00,
2013-08-24 06:35:00,72.6,72.3,29.95,South,187,0.0,0.0,99,0.00,,---,0.00,VWS V14.01,2013-08-24 11:35:00,
2013-08-24 06:40:00,72.6,72.3,29.95,South,187,0.0,0.0,99,0.00,,---,0.00,VWS V14.01,2013-08-24 11:40:00,
2013-08-24 06:45:00,72.6,72.3,29.95,South,187,0.0,0.0,99,0.00,,---,0.00,VWS V14.01,2013-08-24 11:45:00,
2013-08-24 06:50:00,72.7,72.4,29.96,South,187,0.0,0.0,99,0.00,,---,0.00,VWS V14.01,2013-08-24 11:50:00,
2013-08-24 06:55:00,72.7,72.4,29.96,SW,219,0.0,0.0,99,0.01,,---,0.01,VWS V14.01,2013-08-24 11:55:00,
2013-08-24 07:00:00,72.9,72.6,29.95,WSW,248,0.0,0.0,99,0.01,,---,0.01,VWS V14.01,2013-08-24 12:00:00,
2013-08-24 07:05:00,73.1,72.8,29.95,West,274,0.0,0.0,99,0.01,,---,0.01,VWS V14.01,2013-08-24 12:05:00,
2013-08-24 07:10:00,73.2,73.2,29.95,West,274,0.0,0.0,100,0.01,,---,0.01,VWS V14.01,2013-08-24 12:10:00,
2013-08-24 07:15:00,73.3,73.3,29.95,West,274,0.0,0.0,100,0.01,,---,0.01,VWS V14.01,2013-08-24 12:15:00,
2013-08-24 07:19:00,73.4,73.4,29.95,West,274,0.0,0.0,100,0.01,,---,0.01,VWS V14.01,2013-08-24 12:19:00,
2013-08-24 07:24:00,73.6,73.6,29.95,West,274,0.0,0.0,100,0.01,,---,0.01,VWS V14.01,2013-08-24 12:24:00,
2013-08-24 07:29:00,73.6,73.6,29.96,West,274,0.0,0.0,100,0.01,,---,0.01,VWS V14.01,2013-08-24 12:29:00,
2013-08-24 07:34:00,73.8,73.8,29.96,West,274,0.0,0.0,100,0.01,,---,0.01,VWS V14.01,2013-08-24 12:34:00,
2013-08-24 07:39:00,73.9,73.9,29.96,West,274,0.0,1.0,100,0.01,,---,0.01,VWS V14.01,2013-08-24 12:39:00,
2013-08-24 07:44:00,74.0,74.0,29.96,West,274,0.0,1.0,100,0.01,,---,0.01,VWS V14.01,2013-08-24 12:44:00,
2013-08-24 07:49:00,74.1,74.1,29.96,West,274,0.0,1.0,100,0.01,,---,0.01,VWS V14.01,2013-08-24 12:49:00,
2013-08-24 07:54:00,74.3,74.3,29.96,West,274,0.0,1.0,100,0.01,,---,0.01,VWS V14.01,2013-08-24 12:54:00,
2013-08-24 07:59:00,74.5,74.5,29.97,West,274,0.0,1.0,100,0.01,,---,0.01,VWS V14.01,2013-08-24 12:59:00,
2013-08-24 08:04:00,74.6,74.6,29.97,West,266,0.0,0.0,100,0.00,,---,0.01,VWS V14.01,2013-08-24 13:04:00,
2013-08-24 08:09:00,74.5,74.5,29.97,West,268,0.0,1.0,100,0.00,,---,0.01,VWS V14.01,2013-08-24 13:09:00,
2013-08-24 08:14:00,74.5,74.5,29.97,West,276,0.0,1.0,100,0.00,,---,0.01,VWS V14.01,2013-08-24 13:14:00,
2013-08-24 08:19:00,74.6,74.3,29.98,NW,308,0.0,1.0,99,0.00,,---,0.01,VWS V14.01,2013-08-24 13:19:00,
2013-08-24 08:24:00,74.7,74.4,29.98,NW,307,0.0,1.0,99,0.00,,---,0.01,VWS V14.01,2013-08-24 13:24:00,
2013-08-24 08:29:00,74.7,74.4,29.98,NW,307,0.0,1.0,99,0.00,,---,0.01,VWS V14.01,2013-08-24 13:29:00,
2013-08-24 08:34:00,74.9,74.6,29.98,NW,307,0.0,0.0,99,0.00,,---,0.01,VWS V14.01,2013-08-24 13:34:00,
2013-08-24 08:39:00,75.1,74.8,29.98,NW,307,0.0,0.0,99,0.00,,---,0.01,VWS V14.01,2013-08-24 13:39:00,
2013-08-24 08:44:00,75.3,75.0,29.99,WNW,285,0.0,0.0,99,0.00,,---,0.01,VWS V14.01,2013-08-24 13:44:00,
2013-08-24 08:49:00,75.3,75.0,29.99,WNW,285,0.0,0.0,99,0.00,,---,0.01,VWS V14.01,2013-08-24 13:49:00,
2013-08-24 08:54:00,75.5,75.2,29.99,WNW,285,0.0,0.0,99,0.00,,---,0.01,VWS V14.01,2013-08-24 13:54:00,
2013-08-24 08:59:00,75.8,75.5,29.99,WNW,285,0.0,0.0,99,0.00,,---,0.01,VWS V14.01,2013-08-24 13:59:00,
2013-08-24 09:04:00,75.9,75.6,30.00,WNW,285,0.0,0.0,99,0.00,,---,0.01,VWS V14.01,2013-08-24 14:04:00,
2013-08-24 09:09:00,75.9,75.6,30.00,WNW,285,0.0,0.0,99,0.00,,---,0.01,VWS V14.01,2013-08-24 14:09:00,
2013-08-24 09:14:00,76.1,75.8,30.00,WNW,285,0.0,1.0,99,0.00,,---,0.01,VWS V14.01,2013-08-24 14:14:00,
2013-08-24 09:19:00,76.3,76.0,30.00,WNW,285,0.0,1.0,99,0.00,,---,0.01,VWS V14.01,2013-08-24 14:19:00,
2013-08-24 09:24:00,76.5,76.2,30.00,WNW,285,0.0,1.0,99,0.00,,---,0.01,VWS V14.01,2013-08-24 14:24:00,
2013-08-24 09:29:00,76.7,76.4,30.00,WNW,285,0.0,1.0,99,0.00,,---,0.01,VWS V14.01,2013-08-24 14:29:00,
2013-08-24 09:34:00,76.8,76.5,30.01,WNW,285,0.0,0.0,99,0.00,,---,0.01,VWS V14.01,2013-08-24 14:34:00,
2013-08-24 09:39:00,76.9,76.6,30.01,WNW,285,0.0,0.0,99,0.00,,---,0.01,VWS V14.01,2013-08-24 14:39:00,
2013-08-24 09:44:00,77.1,76.8,30.01,WNW,285,0.0,0.0,99,0.00,,---,0.01,VWS V14.01,2013-08-24 14:44:00,
2013-08-24 09:49:00,77.1,76.8,30.01,WNW,285,0.0,0.0,99,0.00,,---,0.01,VWS V14.01,2013-08-24 14:49:00,
2013-08-24 09:54:00,77.3,77.0,30.01,WNW,285,0.0,0.0,99,0.00,,---,0.01,VWS V14.01,2013-08-24 14:54:00,
2013-08-24 09:59:00,77.4,77.1,30.01,WNW,285,0.0,0.0,99,0.00,,---,0.01,VWS V14.01,2013-08-24 14:59:00,
2013-08-24 10:04:00,77.4,76.8,30.01,WNW,285,0.0,0.0,98,0.00,,---,0.01,VWS V14.01,2013-08-24 15:04:00,
2013-08-24 10:09:00,77.4,76.8,30.01,WNW,285,0.0,0.0,98,0.00,,---,0.01,VWS V14.01,2013-08-24 15:09:00,
2013-08-24 10:14:00,77.5,76.9,30.01,WNW,285,0.0,0.0,98,0.00,,---,0.01,VWS V14.01,2013-08-24 15:14:00,
2013-08-24 10:19:00,77.6,77.0,30.01,WNW,285,0.0,0.0,98,0.00,,---,0.01,VWS V14.01,2013-08-24 15:19:00,
2013-08-24 10:24:00,77.8,77.2,30.01,WNW,285,0.0,0.0,98,0.00,,---,0.01,VWS V14.01,2013-08-24 15:24:00,
2013-08-24 10:29:00,77.9,77.3,30.01,WNW,285,0.0,0.0,98,0.00,,---,0.01,VWS V14.01,2013-08-24 15:29:00,
2013-08-24 10:34:00,77.8,77.2,30.01,WNW,285,0.0,0.0,98,0.04,,---,0.05,VWS V14.01,2013-08-24 15:34:00,
2013-08-24 10:39:00,77.4,76.8,30.01,WNW,283,0.0,1.0,98,0.19,,---,0.20,VWS V14.01,2013-08-24 15:39:00,
2013-08-24 10:44:00,77.2,76.6,30.01,WNW,283,0.0,1.0,98,0.24,,---,0.25,VWS V14.01,2013-08-24 15:44:00,
2013-08-24 10:49:00,77.0,76.4,30.01,WNW,283,0.0,1.0,98,0.25,,---,0.26,VWS V14.01,2013-08-24 15:49:00,
2013-08-24 10:54:00,76.9,76.3,30.02,WNW,283,0.0,1.0,98,0.25,,---,0.26,VWS V14.01,2013-08-24 15:54:00,
2013-08-24 10:59:00,76.8,76.2,30.02,WNW,283,0.0,1.0,98,0.25,,---,0.26,VWS V14.01,2013-08-24 15:59:00,
2013-08-24 11:04:00,76.2,75.3,30.02,WNW,283,0.0,0.0,97,0.25,,---,0.26,VWS V14.01,2013-08-24 16:04:00,
2013-08-24 11:09:00,75.9,75.3,30.03,West,259,0.0,1.0,98,0.25,,---,0.26,VWS V14.01,2013-08-24 16:09:00,
2013-08-24 11:14:00,75.7,75.1,30.02,West,260,0.0,1.0,98,0.25,,---,0.26,VWS V14.01,2013-08-24 16:14:00,
2013-08-24 11:19:00,75.7,75.1,30.03,West,260,0.0,1.0,98,0.25,,---,0.26,VWS V14.01,2013-08-24 16:19:00,
2013-08-24 11:24:00,75.7,75.1,30.02,WSW,258,0.0,1.0,98,0.25,,---,0.26,VWS V14.01,2013-08-24 16:24:00,
2013-08-24 11:29:00,75.9,75.3,30.02,West,259,0.0,1.0,98,0.25,,---,0.26,VWS V14.01,2013-08-24 16:29:00,
2013-08-24 11:34:00,76.0,75.4,30.02,West,259,0.0,0.0,98,0.25,,---,0.26,VWS V14.01,2013-08-24 16:34:00,
2013-08-24 11:39:00,76.2,75.6,30.02,WSW,258,0.0,0.0,98,0.25,,---,0.26,VWS V14.01,2013-08-24 16:39:00,
2013-08-24 11:44:00,76.4,75.8,30.02,West,260,0.0,0.0,98,0.25,,---,0.26,VWS V14.01,2013-08-24 16:44:00,
2013-08-24 11:49:00,76.7,76.1,30.02,West,259,0.0,0.0,98,0.25,,---,0.26,VWS V14.01,2013-08-24 16:49:00,
2013-08-24 11:54:00,76.8,76.2,30.03,West,259,0.0,0.0,98,0.25,,---,0.26,VWS V14.01,2013-08-24 16:54:00,
2013-08-24 11:59:00,77.0,76.4,30.02,WSW,258,0.0,0.0,98,0.25,,---,0.26,VWS V14.01,2013-08-24 16:59:00,
2013-08-24 12:04:00,77.2,76.6,30.02,WSW,258,0.0,0.0,98,0.00,,---,0.26,VWS V14.01,2013-08-24 17:04:00,
2013-08-24 12:09:00,77.3,76.7,30.03,WSW,258,0.0,0.0,98,0.00,,---,0.26,VWS V14.01,2013-08-24 17:09:00,
2013-08-24 12:14:00,77.6,76.7,30.03,South,187,1.0,1.0,97,0.00,,---,0.26,VWS V14.01,2013-08-24 17:14:00,
2013-08-24 12:19:00,77.4,76.5,30.03,SE,141,0.0,2.0,97,0.00,,---,0.26,VWS V14.01,2013-08-24 17:19:00,
2013-08-24 12:24:00,76.9,75.7,30.03,SE,136,0.0,2.0,96,0.04,,---,0.30,VWS V14.01,2013-08-24 17:24:00,
2013-08-24 12:29:00,76.3,75.1,30.03,ENE,75,0.0,2.0,96,0.09,,---,0.35,VWS V14.01,2013-08-24 17:29:00,
2013-08-24 12:34:00,76.0,75.1,30.04,ENE,75,0.0,0.0,97,0.13,,---,0.39,VWS V14.01,2013-08-24 17:34:00,
2013-08-24 12:39:00,76.0,75.1,30.04,ENE,75,0.0,1.0,97,0.13,,---,0.39,VWS V14.01,2013-08-24 17:39:00,
2013-08-24 12:44:00,75.8,74.9,30.04,ENE,75,0.0,1.0,97,0.13,,---,0.39,VWS V14.01,2013-08-24 17:44:00,
2013-08-24 12:49:00,75.4,74.5,30.04,ENE,75,0.0,1.0,97,0.13,,---,0.39,VWS V14.01,2013-08-24 17:49:00,
2013-08-24 12:54:00,75.2,74.3,30.05,ENE,75,0.0,1.0,97,0.13,,---,0.39,VWS V14.01,2013-08-24 17:54:00,
2013-08-24 12:59:00,74.9,74.0,30.05,ENE,75,0.0,1.0,97,0.13,,---,0.39,VWS V14.01,2013-08-24 17:59:00,
2013-08-24 13:03:00,74.6,73.7,30.05,ESE,117,0.0,0.0,97,0.13,,---,0.39,VWS V14.01,2013-08-24 18:03:00,
2013-08-24 13:08:00,74.5,73.6,30.04,ESE,117,0.0,0.0,97,0.13,,---,0.39,VWS V14.01,2013-08-24 18:08:00,
2013-08-24 13:13:00,74.5,73.6,30.04,ESE,120,0.0,2.0,97,0.14,,---,0.40,VWS V14.01,2013-08-24 18:13:00,
2013-08-24 13:18:00,74.5,73.9,30.04,ESE,120,0.0,2.0,98,0.14,,---,0.40,VWS V14.01,2013-08-24 18:18:00,
2013-08-24 13:23:00,74.4,73.8,30.04,ESE,120,0.0,2.0,98,0.14,,---,0.40,VWS V14.01,2013-08-24 18:23:00,
2013-08-24 13:28:00,74.4,73.8,30.04,ESE,120,0.0,2.0,98,0.15,,---,0.41,VWS V14.01,2013-08-24 18:28:00,
2013-08-24 13:33:00,74.5,73.9,30.03,SE,135,0.0,0.0,98,0.02,,---,0.41,VWS V14.01,2013-08-24 18:33:00,
2013-08-24 13:38:00,74.6,74.0,30.03,SE,136,0.0,0.0,98,0.02,,---,0.41,VWS V14.01,2013-08-24 18:38:00,
2013-08-24 13:43:00,74.4,73.8,30.02,ENE,60,0.0,1.0,98,0.02,,---,0.41,VWS V14.01,2013-08-24 18:43:00,
2013-08-24 13:48:00,74.5,73.9,30.02,ENE,61,0.0,1.0,98,0.03,,---,0.42,VWS V14.01,2013-08-24 18:48:00,
2013-08-24 13:53:00,74.6,74.0,30.01,ENE,61,0.0,1.0,98,0.04,,---,0.43,VWS V14.01,2013-08-24 18:53:00,
2013-08-24 13:58:00,74.9,74.3,30.01,ENE,60,0.0,1.0,98,0.04,,---,0.43,VWS V14.01,2013-08-24 18:58:00,
2013-08-24 14:03:00,75.1,74.5,30.01,NNW,338,0.0,0.0,98,0.05,,---,0.44,VWS V14.01,2013-08-24 19:03:00,
2013-08-24 14:08:00,75.1,74.5,30.01,NNW,333,0.0,0.0,98,0.05,,---,0.44,VWS V14.01,2013-08-24 19:08:00,
2013-08-24 14:13:00,75.4,74.8,30.00,WNW,303,0.0,0.0,98,0.05,,---,0.44,VWS V14.01,2013-08-24 19:13:00,
2013-08-24 14:18:00,75.4,74.8,30.00,NW,304,0.0,0.0,98,0.05,,---,0.44,VWS V14.01,2013-08-24 19:18:00,
2013-08-24 14:23:00,75.4,74.8,29.99,NW,304,0.0,1.0,98,0.05,,---,0.44,VWS V14.01,2013-08-24 19:23:00,
2013-08-24 14:28:00,75.7,75.1,29.98,NW,304,0.0,1.0,98,0.05,,---,0.44,VWS V14.01,2013-08-24 19:28:00,
2013-08-24 14:33:00,75.6,75.0,29.99,WNW,303,0.0,0.0,98,0.03,,---,0.44,VWS V14.01,2013-08-24 19:33:00,
2013-08-24 14:38:00,75.5,74.6,29.99,NW,307,0.0,0.0,97,0.03,,---,0.44,VWS V14.01,2013-08-24 19:38:00,
2013-08-24 14:43:00,75.6,74.7,29.99,NW,307,0.0,0.0,97,0.03,,---,0.44,VWS V14.01,2013-08-24 19:43:00,
2013-08-24 14:48:00,75.5,74.6,29.99,NW,307,0.0,0.0,97,0.03,,---,0.44,VWS V14.01,2013-08-24 19:48:00,
2013-08-24 14:53:00,75.8,74.9,29.99,NW,307,0.0,0.0,97,0.03,,---,0.44,VWS V14.01,2013-08-24 19:53:00,
2013-08-24 14:58:00,76.1,75.2,30.00,NW,307,0.0,0.0,97,0.03,,---,0.44,VWS V14.01,2013-08-24 19:58:00,
2013-08-24 15:03:00,76.4,75.8,30.00,NW,307,0.0,0.0,98,0.00,,---,0.44,VWS V14.01,2013-08-24 20:03:00,
2013-08-24 15:08:00,76.5,75.6,30.00,NW,307,0.0,0.0,97,0.00,,---,0.44,VWS V14.01,2013-08-24 20:08:00,
2013-08-24 15:13:00,76.7,75.8,30.00,WNW,297,0.0,0.0,97,0.00,,---,0.44,VWS V14.01,2013-08-24 20:13:00,
2013-08-24 15:18:00,77.1,76.2,30.00,WNW,293,0.0,0.0,97,0.00,,---,0.44,VWS V14.01,2013-08-24 20:18:00,
2013-08-24 15:23:00,77.3,76.1,30.00,South,187,0.0,0.0,96,0.00,,---,0.44,VWS V14.01,2013-08-24 20:23:00,
2013-08-24 15:28:00,77.8,76.6,29.99,South,187,0.0,0.0,96,0.00,,---,0.44,VWS V14.01,2013-08-24 20:28:00,
2013-08-24 15:33:00,78.2,77.0,29.99,South,186,0.0,0.0,96,0.00,,---,0.44,VWS V14.01,2013-08-24 20:33:00,
2013-08-24 15:38:00,78.3,76.4,29.99,South,186,0.0,0.0,94,0.00,,---,0.44,VWS V14.01,2013-08-24 20:38:00,
2013-08-24 15:43:00,78.5,76.6,29.99,West,271,0.0,0.0,94,0.00,,---,0.44,VWS V14.01,2013-08-24 20:43:00,
2013-08-24 15:48:00,78.5,76.9,29.99,West,276,0.0,0.0,95,0.00,,---,0.44,VWS V14.01,2013-08-24 20:48:00,
2013-08-24 15:53:00,78.5,76.6,29.99,West,276,0.0,0.0,94,0.00,,---,0.44,VWS V14.01,2013-08-24 20:53:00,
2013-08-24 15:58:00,78.6,76.7,29.98,West,277,0.0,0.0,94,0.00,,---,0.44,VWS V14.01,2013-08-24 20:58:00,
2013-08-24 16:03:00,78.7,77.2,29.98,West,277,0.0,0.0,95,0.00,,---,0.44,VWS V14.01,2013-08-24 21:03:00,
2013-08-24 16:08:00,78.8,76.9,29.98,West,276,0.0,0.0,94,0.00,,---,0.44,VWS V14.01,2013-08-24 21:08:00,
2013-08-24 16:13:00,78.7,76.5,29.99,WNW,291,0.0,0.0,93,0.00,,---,0.44,VWS V14.01,2013-08-24 21:13:00,
2013-08-24 16:18:00,78.5,76.3,29.98,WSW,253,0.0,0.0,93,0.00,,---,0.44,VWS V14.01,2013-08-24 21:18:00,
2013-08-24 16:23:00,78.6,76.7,29.98,WSW,253,0.0,0.0,94,0.00,,---,0.44,VWS V14.01,2013-08-24 21:23:00,
2013-08-24 16:28:00,78.5,76.6,29.98,WSW,253,0.0,0.0,94,0.00,,---,0.44,VWS V14.01,2013-08-24 21:28:00,
2013-08-24 16:33:00,78.3,76.4,29.98,WSW,253,0.0,0.0,94,0.00,,---,0.44,VWS V14.01,2013-08-24 21:33:00,
2013-08-24 16:38:00,78.1,76.2,29.98,WSW,253,0.0,0.0,94,0.00,,---,0.44,VWS V14.01,2013-08-24 21:38:00,
2013-08-24 16:43:00,78.0,76.1,29.98,WSW,253,0.0,0.0,94,0.00,,---,0.44,VWS V14.01,2013-08-24 21:43:00,
2013-08-24 16:48:00,78.1,76.6,29.98,WSW,253,0.0,0.0,95,0.00,,---,0.44,VWS V14.01,2013-08-24 21:48:00,
2013-08-24 16:53:00,78.1,76.6,29.98,WSW,255,0.0,0.0,95,0.00,,---,0.44,VWS V14.01,2013-08-24 21:53:00,
2013-08-24 16:58:00,78.1,76.6,29.98,WSW,253,0.0,0.0,95,0.00,,---,0.44,VWS V14.01,2013-08-24 21:58:00,
2013-08-24 17:03:00,78.0,76.5,29.98,WSW,253,0.0,0.0,95,0.00,,---,0.44,VWS V14.01,2013-08-24 22:03:00,
2013-08-24 17:08:00,78.2,76.7,29.97,WSW,253,0.0,0.0,95,0.00,,---,0.44,VWS V14.01,2013-08-24 22:08:00,
2013-08-24 17:13:00,78.4,76.8,29.97,WSW,253,0.0,0.0,95,0.00,,---,0.44,VWS V14.01,2013-08-24 22:13:00,
2013-08-24 17:18:00,78.6,76.7,29.97,WSW,253,0.0,0.0,94,0.00,,---,0.44,VWS V14.01,2013-08-24 22:18:00,
2013-08-24 17:23:00,78.6,76.7,29.97,WSW,254,0.0,0.0,94,0.00,,---,0.44,VWS V14.01,2013-08-24 22:23:00,
2013-08-24 17:28:00,78.5,76.6,29.97,WSW,253,0.0,0.0,94,0.00,,---,0.44,VWS V14.01,2013-08-24 22:28:00,
2013-08-24 17:33:00,78.3,76.4,29.97,WSW,253,0.0,0.0,94,0.00,,---,0.44,VWS V14.01,2013-08-24 22:33:00,
2013-08-24 17:38:00,78.2,76.7,29.97,WSW,253,0.0,0.0,95,0.00,,---,0.44,VWS V14.01,2013-08-24 22:38:00,
2013-08-24 17:43:00,78.1,76.6,29.97,WSW,255,0.0,0.0,95,0.00,,---,0.44,VWS V14.01,2013-08-24 22:43:00,
2013-08-24 17:48:00,78.1,76.6,29.97,WSW,254,0.0,0.0,95,0.00,,---,0.44,VWS V14.01,2013-08-24 22:48:00,
2013-08-24 17:53:00,78.2,76.7,29.97,WSW,255,0.0,0.0,95,0.00,,---,0.44,VWS V14.01,2013-08-24 22:53:00,
2013-08-24 17:58:00,78.1,76.6,29.98,WSW,255,0.0,0.0,95,0.00,,---,0.44,VWS V14.01,2013-08-24 22:58:00,
2013-08-24 18:03:00,78.1,76.6,29.98,WSW,255,0.0,0.0,95,0.00,,---,0.44,VWS V14.01,2013-08-24 23:03:00,
2013-08-24 18:08:00,77.9,76.4,29.98,West,280,0.0,0.0,95,0.00,,---,0.44,VWS V14.01,2013-08-24 23:08:00,
2013-08-24 18:13:00,77.8,76.3,29.98,West,262,0.0,0.0,95,0.00,,---,0.44,VWS V14.01,2013-08-24 23:13:00,
2013-08-24 18:18:00,77.6,76.1,29.98,West,262,0.0,0.0,95,0.00,,---,0.44,VWS V14.01,2013-08-24 23:18:00,
2013-08-24 18:23:00,77.3,75.8,29.98,West,262,0.0,0.0,95,0.00,,---,0.44,VWS V14.01,2013-08-24 23:23:00,
2013-08-24 18:28:00,77.1,75.6,29.98,West,262,0.0,0.0,95,0.00,,---,0.44,VWS V14.01,2013-08-24 23:28:00,
2013-08-24 18:33:00,76.9,75.7,29.98,West,262,0.0,0.0,96,0.00,,---,0.44,VWS V14.01,2013-08-24 23:33:00,
2013-08-24 18:38:00,76.7,75.5,29.98,West,262,0.0,0.0,96,0.00,,---,0.44,VWS V14.01,2013-08-24 23:38:00,
2013-08-24 18:42:00,76.6,75.4,29.98,West,262,0.0,0.0,96,0.00,,---,0.44,VWS V14.01,2013-08-24 23:42:00,
2013-08-24 18:47:00,76.5,75.3,29.98,West,262,0.0,0.0,96,0.00,,---,0.44,VWS V14.01,2013-08-24 23:47:00,
2013-08-24 18:52:00,76.4,75.5,29.98,West,262,0.0,0.0,97,0.00,,---,0.44,VWS V14.01,2013-08-24 23:52:00,
2013-08-24 18:57:00,76.2,75.0,29.98,West,262,0.0,0.0,96,0.00,,---,0.44,VWS V14.01,2013-08-24 23:57:00,
2013-08-24 19:02:00,76.1,75.2,29.99,West,262,0.0,0.0,97,0.00,,---,0.44,VWS V14.01,2013-08-25 00:02:00,
2013-08-24 19:07:00,76.0,75.1,29.99,West,262,0.0,0.0,97,0.00,,---,0.44,VWS V14.01,2013-08-25 00:07:00,
2013-08-24 19:12:00,75.9,75.0,29.99,West,262,0.0,0.0,97,0.00,,---,0.44,VWS V14.01,2013-08-25 00:12:00,
2013-08-24 19:17:00,75.8,74.9,29.99,West,262,0.0,0.0,97,0.00,,---,0.44,VWS V14.01,2013-08-25 00:17:00,
2013-08-24 19:22:00,75.6,74.7,29.99,West,262,0.0,0.0,97,0.00,,---,0.44,VWS V14.01,2013-08-25 00:22:00,
2013-08-24 19:27:00,75.4,74.5,29.99,West,262,0.0,0.0,97,0.00,,---,0.44,VWS V14.01,2013-08-25 00:27:00,
2013-08-24 19:32:00,75.2,74.3,29.99,West,262,0.0,0.0,97,0.00,,---,0.44,VWS V14.01,2013-08-25 00:32:00,
2013-08-24 19:37:00,75.0,74.1,29.99,West,262,0.0,0.0,97,0.00,,---,0.44,VWS V14.01,2013-08-25 00:37:00,
2013-08-24 19:42:00,74.8,73.9,29.99,West,262,0.0,0.0,97,0.00,,---,0.44,VWS V14.01,2013-08-25 00:42:00,
2013-08-24 19:47:00,74.5,73.6,29.99,West,262,0.0,0.0,97,0.00,,---,0.44,VWS V14.01,2013-08-25 00:47:00,
2013-08-24 19:52:00,74.5,73.6,29.99,West,262,0.0,0.0,97,0.00,,---,0.44,VWS V14.01,2013-08-25 00:52:00,
2013-08-24 19:57:00,74.4,73.8,30.00,West,262,0.0,0.0,98,0.00,,---,0.44,VWS V14.01,2013-08-25 00:57:00,
2013-08-24 20:02:00,74.3,73.7,30.00,West,262,0.0,0.0,98,0.00,,---,0.44,VWS V14.01,2013-08-25 01:02:00,
2013-08-24 20:07:00,74.3,73.7,30.00,West,262,0.0,0.0,98,0.00,,---,0.44,VWS V14.01,2013-08-25 01:07:00,
2013-08-24 20:12:00,74.2,73.6,29.99,West,262,0.0,0.0,98,0.00,,---,0.44,VWS V14.01,2013-08-25 01:12:00,
2013-08-24 20:17:00,74.1,73.5,29.99,West,262,0.0,0.0,98,0.00,,---,0.44,VWS V14.01,2013-08-25 01:17:00,
2013-08-24 20:22:00,74.1,73.5,30.00,West,262,0.0,0.0,98,0.00,,---,0.44,VWS V14.01,2013-08-25 01:22:00,
2013-08-24 20:27:00,74.1,73.5,30.00,West,262,0.0,0.0,98,0.00,,---,0.44,VWS V14.01,2013-08-25 01:27:00,
2013-08-24 20:32:00,74.0,73.4,30.00,West,262,0.0,0.0,98,0.00,,---,0.44,VWS V14.01,2013-08-25 01:32:00,
2013-08-24 20:37:00,73.9,73.3,30.00,West,262,0.0,0.0,98,0.00,,---,0.44,VWS V14.01,2013-08-25 01:37:00,
2013-08-24 20:42:00,73.7,73.1,30.00,West,262,0.0,0.0,98,0.00,,---,0.44,VWS V14.01,2013-08-25 01:42:00,
2013-08-24 20:47:00,73.6,73.0,30.00,West,262,0.0,0.0,98,0.00,,---,0.44,VWS V14.01,2013-08-25 01:47:00,
2013-08-24 20:52:00,73.4,72.8,30.00,West,262,0.0,0.0,98,0.00,,---,0.44,VWS V14.01,2013-08-25 01:52:00,
2013-08-24 20:57:00,73.3,72.7,30.00,West,262,0.0,0.0,98,0.00,,---,0.44,VWS V14.01,2013-08-25 01:57:00,
2013-08-24 21:02:00,73.2,72.6,30.00,West,262,0.0,0.0,98,0.00,,---,0.44,VWS V14.01,2013-08-25 02:02:00,
2013-08-24 21:07:00,73.2,72.6,30.00,West,262,0.0,0.0,98,0.00,,---,0.44,VWS V14.01,2013-08-25 02:07:00,
2013-08-24 21:12:00,73.2,72.6,30.00,West,262,0.0,0.0,98,0.00,,---,0.44,VWS V14.01,2013-08-25 02:12:00,
2013-08-24 21:17:00,73.2,72.6,30.00,West,262,0.0,0.0,98,0.00,,---,0.44,VWS V14.01,2013-08-25 02:17:00,
2013-08-24 21:22:00,73.2,72.6,30.01,West,262,0.0,0.0,98,0.00,,---,0.44,VWS V14.01,2013-08-25 02:22:00,
2013-08-24 21:27:00,73.2,72.9,30.01,West,262,0.0,0.0,99,0.00,,---,0.44,VWS V14.01,2013-08-25 02:27:00,
2013-08-24 21:32:00,73.3,73.0,30.01,West,262,0.0,0.0,99,0.00,,---,0.44,VWS V14.01,2013-08-25 02:32:00,
2013-08-24 21:37:00,73.2,72.9,30.01,West,262,0.0,0.0,99,0.00,,---,0.44,VWS V14.01,2013-08-25 02:37:00,
2013-08-24 21:42:00,73.1,72.8,30.01,West,262,0.0,0.0,99,0.00,,---,0.44,VWS V14.01,2013-08-25 02:42:00,
2013-08-24 21:47:00,73.0,72.7,30.01,West,262,0.0,0.0,99,0.00,,---,0.44,VWS V14.01,2013-08-25 02:47:00,
2013-08-24 21:52:00,73.0,72.7,30.01,West,262,0.0,0.0,99,0.00,,---,0.44,VWS V14.01,2013-08-25 02:52:00,
2013-08-24 21:57:00,72.9,72.6,30.01,West,262,0.0,0.0,99,0.00,,---,0.44,VWS V14.01,2013-08-25 02:57:00,
2013-08-24 22:02:00,72.8,72.5,30.01,West,262,0.0,0.0,99,0.00,,---,0.44,VWS V14.01,2013-08-25 03:02:00,
2013-08-24 22:07:00,72.7,72.4,30.01,West,262,0.0,0.0,99,0.00,,---,0.44,VWS V14.01,2013-08-25 03:07:00,
2013-08-24 22:12:00,72.7,72.4,30.02,West,262,0.0,0.0,99,0.00,,---,0.44,VWS V14.01,2013-08-25 03:12:00,
2013-08-24 22:17:00,72.7,72.4,30.02,West,262,0.0,0.0,99,0.00,,---,0.44,VWS V14.01,2013-08-25 03:17:00,
2013-08-24 22:22:00,72.8,72.5,30.02,West,262,0.0,0.0,99,0.00,,---,0.44,VWS V14.01,2013-08-25 03:22:00,
2013-08-24 22:27:00,73.0,72.7,30.02,West,262,0.0,0.0,99,0.00,,---,0.44,VWS V14.01,2013-08-25 03:27:00,
2013-08-24 22:32:00,73.1,72.8,30.02,West,262,0.0,0.0,99,0.00,,---,0.44,VWS V14.01,2013-08-25 03:32:00,
2013-08-24 22:37:00,73.1,72.8,30.02,West,262,0.0,0.0,99,0.00,,---,0.44,VWS V14.01,2013-08-25 03:37:00,
2013-08-24 22:42:00,73.1,72.8,30.02,West,262,0.0,0.0,99,0.00,,---,0.44,VWS V14.01,2013-08-25 03:42:00,
2013-08-24 22:47:00,72.9,72.6,30.02,West,261,0.0,0.0,99,0.00,,---,0.44,VWS V14.01,2013-08-25 03:47:00,
2013-08-24 22:52:00,72.8,72.5,30.03,West,262,0.0,0.0,99,0.00,,---,0.44,VWS V14.01,2013-08-25 03:52:00,
2013-08-24 22:57:00,72.7,72.4,30.03,West,262,0.0,0.0,99,0.00,,---,0.44,VWS V14.01,2013-08-25 03:57:00,
2013-08-24 23:01:00,72.7,72.4,30.02,West,262,0.0,0.0,99,0.00,,---,0.44,VWS V14.01,2013-08-25 04:01:00,
2013-08-24 23:06:00,72.6,72.3,30.03,West,262,0.0,0.0,99,0.00,,---,0.44,VWS V14.01,2013-08-25 04:06:00,
2013-08-24 23:11:00,72.4,72.1,30.03,West,262,0.0,0.0,99,0.00,,---,0.44,VWS V14.01,2013-08-25 04:11:00,
2013-08-24 23:16:00,72.3,72.0,30.03,West,262,0.0,0.0,99,0.00,,---,0.44,VWS V14.01,2013-08-25 04:16:00,
2013-08-24 23:21:00,72.3,72.0,30.03,West,262,0.0,0.0,99,0.00,,---,0.44,VWS V14.01,2013-08-25 04:21:00,
2013-08-24 23:26:00,72.3,72.0,30.03,West,262,0.0,0.0,99,0.00,,---,0.44,VWS V14.01,2013-08-25 04:26:00,
2013-08-24 23:31:00,72.4,72.1,30.02,West,262,0.0,0.0,99,0.00,,---,0.44,VWS V14.01,2013-08-25 04:31:00,
2013-08-24 23:36:00,72.4,72.1,30.02,West,262,0.0,0.0,99,0.00,,---,0.44,VWS V14.01,2013-08-25 04:36:00,
2013-08-24 23:41:00,72.4,72.1,30.02,West,262,0.0,0.0,99,0.00,,---,0.44,VWS V14.01,2013-08-25 04:41:00,
2013-08-24 23:46:00,72.5,72.2,30.02,West,262,0.0,0.0,99,0.00,,---,0.44,VWS V14.01,2013-08-25 04:46:00,
2013-08-24 23:51:00,72.5,72.2,30.02,West,262,0.0,0.0,99,0.00,,---,0.44,VWS V14.01,2013-08-25 04:51:00,
2013-08-24 23:56:00,72.5,72.2,30.02,West,262,0.0,0.0,99,0.00,,---,0.44,VWS V14.01,2013-08-25 04:56:00,